Time;durP1;ratioP1;P1;durP2;ratioP2;P2;SDS_P1;SDS_P2;PMS_P1;PMS_P2;Temp;Humidity;BMP_temperature;BMP_pressure;BME280_temperature;BME280_humidity;BME280_pressure;Samples;Min_cycle;Max_cycle;Signal;HPM_P1;HPM_P2
2022/01/07 00:02:06;;;;;;;;;1.50;0.50;;;;;5.36;62.35;101472.44;5057494;28;45414;-78
2022/01/07 00:04:35;;;;;;;;;0.00;0.00;;;;;5.12;62.92;101437.03;5032060;28;46025;-78
2022/01/07 00:07:01;;;;;;;;;0.00;0.00;;;;;5.26;63.45;101474.63;5061561;28;47153;-79
2022/01/07 00:09:26;;;;;;;;;0.00;0.00;;;;;5.10;63.54;101447.28;5029222;28;45489;-79
2022/01/07 00:11:51;;;;;;;;;2.00;0.00;;;;;5.08;64.40;101443.75;5061429;28;45647;-78
2022/01/07 00:14:17;;;;;;;;;0.00;0.00;;;;;5.18;64.47;101455.38;5061746;28;45389;-78
2022/01/07 00:16:42;;;;;;;;;0.50;0.50;;;;;5.18;65.07;101448.47;5042987;28;45432;-78
2022/01/07 00:19:07;;;;;;;;;0.00;0.00;;;;;4.85;65.24;101411.78;5042668;28;45448;-78
2022/01/07 00:21:33;;;;;;;;;0.00;0.00;;;;;4.97;64.82;101427.81;5061085;28;45442;-78
2022/01/07 00:23:59;;;;;;;;;0.25;0.25;;;;;4.92;66.32;101440.53;5042559;28;45833;-78
2022/01/07 00:26:24;;;;;;;;;0.00;0.00;;;;;4.84;66.22;101413.47;5040981;28;45407;-78
2022/01/07 00:28:50;;;;;;;;;1.00;1.00;;;;;4.87;66.70;101417.91;5018091;28;45776;-79
2022/01/07 00:31:15;;;;;;;;;1.75;1.00;;;;;4.59;66.42;101373.72;5030428;28;45617;-79
2022/01/07 00:33:41;;;;;;;;;5.00;0.00;;;;;4.79;66.92;101415.00;5037946;28;45959;-78
2022/01/07 00:36:06;;;;;;;;;1.00;1.00;;;;;4.89;68.16;101422.31;5031507;28;46018;-77
2022/01/07 00:38:32;;;;;;;;;0.00;0.00;;;;;4.73;67.59;101402.72;5024324;28;45599;-78
2022/01/07 00:40:58;;;;;;;;;0.00;0.00;;;;;4.66;67.35;101398.13;5042039;28;45553;-79
2022/01/07 00:43:23;;;;;;;;;2.25;1.00;;;;;4.72;68.67;101416.44;5033587;28;45514;-78
2022/01/07 00:45:49;;;;;;;;;0.00;0.00;;;;;4.77;68.20;101411.47;5008865;28;45541;-79
2022/01/07 00:48:15;;;;;;;;;2.00;0.00;;;;;4.29;68.25;101358.69;5016598;28;45380;-79
2022/01/07 00:50:41;;;;;;;;;0.25;0.00;;;;;4.39;68.75;101376.34;5029983;28;45444;-78
2022/01/07 00:53:07;;;;;;;;;1.00;0.00;;;;;4.48;68.74;101380.13;5018535;28;45725;-78
2022/01/07 00:55:32;;;;;;;;;0.00;0.00;;;;;4.64;69.28;101408.38;5034463;28;45462;-77
2022/01/07 00:57:58;;;;;;;;;0.25;0.25;;;;;4.27;68.82;101358.63;5018899;28;45412;-78
2022/01/07 01:00:25;;;;;;;;;0.00;0.00;;;;;4.38;69.52;101378.84;5028756;28;45628;-78
2022/01/07 01:02:52;;;;;;;;;0.50;0.50;;;;;4.55;69.33;101393.38;5024311;28;46234;-78
2022/01/07 01:05:18;;;;;;;;;0.25;0.25;;;;;4.58;69.04;101408.09;5035609;28;45349;-77
2022/01/07 01:07:44;;;;;;;;;0.25;0.25;;;;;4.47;69.18;101392.13;5016462;28;45437;-78
2022/01/07 01:10:11;;;;;;;;;0.00;0.00;;;;;4.02;70.03;101318.84;5022417;28;45686;-78
2022/01/07 01:12:38;;;;;;;;;0.00;0.00;;;;;4.39;69.87;101381.50;5010908;28;46809;-78
2022/01/07 01:15:07;;;;;;;;;0.75;0.00;;;;;4.56;70.09;101408.00;5033703;28;45518;-78
2022/01/07 01:17:33;;;;;;;;;0.00;0.00;;;;;4.60;69.45;101396.16;5017221;28;45430;-78
2022/01/07 01:19:59;;;;;;;;;0.00;0.00;;;;;4.46;69.08;101367.16;5037165;28;45453;-78
2022/01/07 01:22:24;;;;;;;;;0.00;0.00;;;;;4.47;70.14;101368.06;5038988;28;45452;-78
2022/01/07 01:24:50;;;;;;;;;0.00;0.00;;;;;4.55;70.21;101380.47;5016969;28;46137;-78
2022/01/07 01:27:16;;;;;;;;;0.00;0.00;;;;;4.27;70.39;101350.91;5037519;28;45506;-79
2022/01/07 01:29:41;;;;;;;;;0.00;0.00;;;;;4.51;70.40;101395.75;5041135;28;45407;-78
2022/01/07 01:32:07;;;;;;;;;0.00;0.00;;;;;4.38;70.44;101390.03;5040419;28;46998;-79
2022/01/07 01:34:32;;;;;;;;;1.00;0.25;;;;;3.99;69.21;101292.09;5040533;28;45490;-79
2022/01/07 01:36:57;;;;;;;;;0.00;0.00;;;;;4.31;69.38;101329.59;5040798;28;45517;-79
2022/01/07 01:39:23;;;;;;;;;0.00;0.00;;;;;4.58;69.75;101366.81;5041087;28;45532;-78
2022/01/07 01:41:49;;;;;;;;;1.75;0.75;;;;;4.35;69.64;101325.44;5026797;28;46102;-79
2022/01/07 01:44:15;;;;;;;;;1.00;1.00;;;;;4.68;69.38;101378.41;5040328;28;45449;-79
2022/01/07 01:46:40;;;;;;;;;0.00;0.00;;;;;4.48;69.45;101346.59;5040589;28;45384;-78
2022/01/07 01:49:06;;;;;;;;;1.50;1.50;;;;;4.66;69.50;101392.97;5019941;28;45389;-79
2022/01/07 01:51:33;;;;;;;;;1.00;0.00;;;;;4.54;69.08;101367.50;5037131;28;45503;-79
2022/01/07 01:53:59;;;;;;;;;2.00;2.00;;;;;4.14;69.59;101300.47;5039650;28;45320;-79
2022/01/07 01:56:24;;;;;;;;;0.00;0.00;;;;;4.65;70.28;101386.91;5040088;28;45788;-78
2022/01/07 01:58:50;;;;;;;;;0.00;0.00;;;;;4.39;69.69;101344.50;5039957;28;45518;-78
2022/01/07 02:01:15;;;;;;;;;0.00;0.00;;;;;4.31;70.17;101324.44;5039968;28;45449;-78
2022/01/07 02:03:40;;;;;;;;;0.25;0.00;;;;;4.62;70.58;101375.59;5039911;28;45430;-78
2022/01/07 02:06:06;;;;;;;;;1.50;0.00;;;;;4.49;69.99;101349.25;5028323;28;45459;-78
2022/01/07 02:08:31;;;;;;;;;1.00;1.00;;;;;4.54;70.13;101350.31;5040394;28;45462;-78
2022/01/07 02:10:58;;;;;;;;;0.25;0.25;;;;;4.52;70.33;101351.97;5039923;28;46277;-78
2022/01/07 02:13:24;;;;;;;;;0.25;0.25;;;;;4.50;70.09;101352.72;5040197;28;45432;-78
2022/01/07 02:15:49;;;;;;;;;2.00;0.00;;;;;4.43;70.20;101338.66;5040195;28;45496;-79
2022/01/07 02:18:17;;;;;;;;;0.00;0.00;;;;;4.53;70.54;101345.09;5040307;28;45325;-78
2022/01/07 02:20:42;;;;;;;;;0.25;0.25;;;;;4.18;70.58;101275.75;5020184;28;46500;-78
2022/01/07 02:23:08;;;;;;;;;1.00;0.00;;;;;4.23;70.71;101294.84;5033572;28;45386;-78
2022/01/07 02:25:33;;;;;;;;;0.00;0.00;;;;;4.21;70.62;101277.56;5050829;28;45318;-78
2022/01/07 02:27:59;;;;;;;;;0.00;0.00;;;;;4.36;70.39;101296.28;5056646;28;45594;-78
2022/01/07 02:30:27;;;;;;;;;1.00;0.50;;;;;4.75;70.06;101364.97;5039896;28;48043;-78
2022/01/07 02:32:53;;;;;;;;;1.00;0.00;;;;;4.68;70.46;101331.97;5058588;28;45691;-78
2022/01/07 02:35:21;;;;;;;;;0.25;0.25;;;;;4.70;70.11;101345.84;5053898;28;45434;-78
2022/01/07 02:37:47;;;;;;;;;0.00;0.00;;;;;4.74;70.46;101341.66;5059425;28;45382;-78
2022/01/07 02:40:13;;;;;;;;;1.00;0.00;;;;;4.48;70.60;101290.78;5053751;28;45431;-78
2022/01/07 02:42:39;;;;;;;;;0.00;0.00;;;;;4.66;70.29;101298.38;5059870;28;45732;-78
2022/01/07 02:45:08;;;;;;;;;0.00;0.00;;;;;4.41;70.43;101275.88;5054032;28;45426;-79
2022/01/07 02:47:48;;;;;;;;;0.00;0.00;;;;;4.76;70.22;101312.56;5059800;28;45470;-78
2022/01/07 02:50:14;;;;;;;;;0.00;0.00;;;;;4.25;70.73;101223.63;5053809;28;45426;-78
2022/01/07 02:52:39;;;;;;;;;0.00;0.00;;;;;4.51;70.60;101247.06;5059657;28;45765;-78
2022/01/07 02:55:05;;;;;;;;;1.00;0.00;;;;;4.59;70.60;101272.28;5059047;28;45743;-78
2022/01/07 02:57:30;;;;;;;;;0.00;0.00;;;;;5.04;70.02;101336.94;5057722;28;45492;-78
2022/01/07 02:59:56;;;;;;;;;0.00;0.00;;;;;4.95;70.54;101326.22;5059452;28;46274;-78
2022/01/07 03:02:21;;;;;;;;;0.00;0.00;;;;;4.64;69.60;101284.56;5060902;28;45370;-77
2022/01/07 03:04:46;;;;;;;;;0.00;0.00;;;;;4.91;70.55;101326.91;5038959;28;45491;-78
2022/01/07 03:07:12;;;;;;;;;0.00;0.00;;;;;4.96;70.48;101322.81;5054751;28;45473;-78
2022/01/07 03:09:37;;;;;;;;;0.00;0.00;;;;;4.95;70.53;101318.47;5033133;28;46247;-77
2022/01/07 03:12:03;;;;;;;;;0.00;0.00;;;;;5.03;70.71;101329.13;5036692;28;45444;-78
2022/01/07 03:14:28;;;;;;;;;0.00;0.00;;;;;5.05;70.17;101322.31;5056162;28;45434;-77
2022/01/07 03:16:54;;;;;;;;;0.00;0.00;;;;;4.81;70.22;101284.38;5063255;28;45482;-77
2022/01/07 03:19:19;;;;;;;;;0.00;0.00;;;;;4.47;70.03;101228.81;5062896;28;45485;-77
2022/01/07 03:21:44;;;;;;;;;0.00;0.00;;;;;4.80;70.15;101285.19;5056233;28;45754;-77
2022/01/07 03:24:10;;;;;;;;;0.00;0.00;;;;;5.06;70.46;101321.50;5057332;28;45682;-78
2022/01/07 03:26:35;;;;;;;;;0.00;0.00;;;;;4.43;70.10;101228.69;5033725;28;45563;-78
2022/01/07 03:29:01;;;;;;;;;0.00;0.00;;;;;5.04;69.62;101318.88;5050209;28;46002;-78
2022/01/07 03:31:26;;;;;;;;;0.00;0.00;;;;;5.02;70.39;101319.63;5052319;28;45625;-78
2022/01/07 03:33:51;;;;;;;;;0.00;0.00;;;;;4.97;70.43;101311.69;5059378;28;45403;-78
2022/01/07 03:36:17;;;;;;;;;0.00;0.00;;;;;4.74;70.40;101249.72;5042086;28;45622;-78
2022/01/07 03:38:44;;;;;;;;;0.00;0.00;;;;;5.03;69.69;101288.69;5014961;28;48546;-78
2022/01/07 03:41:09;;;;;;;;;0.00;0.00;;;;;4.97;69.87;101275.56;5031021;28;45959;-78
2022/01/07 03:43:34;;;;;;;;;0.00;0.00;;;;;5.04;69.32;101292.16;5040770;28;45369;-78
2022/01/07 03:46:00;;;;;;;;;0.00;0.00;;;;;5.11;69.77;101299.34;5042753;28;45378;-78
2022/01/07 03:48:25;;;;;;;;;0.00;0.00;;;;;4.88;69.55;101267.44;5026407;28;47005;-78
2022/01/07 03:50:51;;;;;;;;;0.00;0.00;;;;;4.85;70.27;101251.84;5038857;28;45477;-78
2022/01/07 03:53:16;;;;;;;;;0.00;0.00;;;;;4.82;70.12;101255.19;5038219;28;45517;-78
2022/01/07 03:55:42;;;;;;;;;0.25;0.25;;;;;4.95;69.76;101277.19;5030563;28;45427;-78
2022/01/07 03:58:07;;;;;;;;;0.00;0.00;;;;;4.22;69.29;101148.75;5034737;28;46424;-78
2022/01/07 04:00:38;;;;;;;;;0.75;0.00;;;;;5.18;69.87;101306.50;5044979;28;45499;-78
2022/01/07 04:03:07;;;;;;;;;0.00;0.00;;;;;4.93;69.65;101234.94;5049434;28;45728;-78
2022/01/07 04:05:32;;;;;;;;;0.00;0.00;;;;;4.79;69.74;101222.41;5040016;28;45363;-78
2022/01/07 04:07:58;;;;;;;;;0.75;0.00;;;;;5.10;69.45;101256.28;5040478;28;45478;-78
2022/01/07 04:10:23;;;;;;;;;1.00;0.00;;;;;5.10;69.65;101257.97;5051921;28;45891;-78
2022/01/07 04:12:49;;;;;;;;;1.50;0.00;;;;;4.90;69.55;101235.72;5022450;28;45757;-78
2022/01/07 04:15:16;;;;;;;;;0.00;0.00;;;;;4.35;69.61;101132.09;5044579;28;45439;-78
2022/01/07 04:17:46;;;;;;;;;0.00;0.00;;;;;5.14;69.22;101265.91;5038494;28;46121;-79
2022/01/07 04:20:16;;;;;;;;;0.50;0.00;;;;;4.99;69.53;101248.09;5041798;28;45509;-78
2022/01/07 04:22:42;;;;;;;;;0.00;0.00;;;;;5.20;69.50;101275.59;5043954;28;45586;-78
2022/01/07 04:25:12;;;;;;;;;0.00;0.00;;;;;5.05;69.47;101250.06;5033087;28;45459;-78
2022/01/07 04:27:39;;;;;;;;;0.00;0.00;;;;;5.25;69.22;101276.66;5021213;28;47698;-78
2022/01/07 04:30:05;;;;;;;;;0.00;0.00;;;;;5.32;69.13;101270.91;5041951;28;45818;-78
2022/01/07 04:32:30;;;;;;;;;0.00;0.00;;;;;5.29;69.10;101264.75;5041888;28;45313;-78
2022/01/07 04:34:56;;;;;;;;;0.00;0.00;;;;;5.12;69.36;101243.44;5047845;28;45459;-78
2022/01/07 04:37:21;;;;;;;;;0.00;0.00;;;;;4.97;69.10;101208.47;5046224;28;46270;-79
2022/01/07 04:39:47;;;;;;;;;0.00;0.00;;;;;5.42;69.01;101276.44;5038561;28;46101;-78
2022/01/07 04:42:12;;;;;;;;;0.00;0.00;;;;;5.44;69.06;101283.44;5011962;28;45862;-78
2022/01/07 04:44:40;;;;;;;;;0.75;0.75;;;;;5.31;69.39;101270.84;5033999;28;45415;-78
2022/01/07 04:47:10;;;;;;;;;0.00;0.00;;;;;5.37;69.24;101284.00;5048312;28;45761;-79
2022/01/07 04:49:36;;;;;;;;;0.00;0.00;;;;;5.36;69.28;101287.41;5050934;28;45383;-78
2022/01/07 04:52:05;;;;;;;;;1.00;0.00;;;;;5.39;69.21;101291.81;5041035;28;45296;-79
2022/01/07 04:54:32;;;;;;;;;0.00;0.00;;;;;5.28;69.55;101268.16;5041121;28;45525;-78
2022/01/07 04:56:57;;;;;;;;;0.00;0.00;;;;;5.36;69.49;101278.78;5023859;28;47786;-78
2022/01/07 04:59:24;;;;;;;;;0.00;0.00;;;;;5.24;69.06;101266.28;5040963;28;45523;-79
2022/01/07 05:01:49;;;;;;;;;0.00;0.00;;;;;4.40;68.97;101124.56;5040818;28;45874;-78
2022/01/07 05:04:15;;;;;;;;;0.00;0.00;;;;;4.97;69.61;101215.31;5051233;28;45573;-78
2022/01/07 05:09:08;;;;;;;;;0.00;0.00;;;;;4.93;69.21;101197.16;5048770;28;45444;-78
2022/01/07 05:11:34;;;;;;;;;2.00;0.00;;;;;5.20;69.71;101240.34;5043369;28;45328;-77
2022/01/07 05:13:59;;;;;;;;;0.00;0.00;;;;;5.30;69.59;101243.28;5031355;28;45929;-77
2022/01/07 05:16:26;;;;;;;;;0.00;0.00;;;;;5.22;69.67;101232.66;5038228;28;45471;-77
2022/01/07 05:18:52;;;;;;;;;0.00;0.00;;;;;5.04;69.24;101210.47;5027313;28;45437;-77
2022/01/07 05:21:17;;;;;;;;;0.00;0.00;;;;;4.39;69.62;101118.53;5037102;28;45419;-77
2022/01/07 05:23:42;;;;;;;;;0.00;0.00;;;;;5.23;69.76;101255.06;5038294;28;45398;-78
2022/01/07 05:26:08;;;;;;;;;0.75;0.75;;;;;5.21;69.65;101251.56;5060067;28;45454;-77
2022/01/07 05:28:33;;;;;;;;;0.00;0.00;;;;;5.11;69.66;101245.13;5060638;28;45609;-79
2022/01/07 05:30:59;;;;;;;;;0.00;0.00;;;;;4.94;69.86;101218.69;5056820;28;45516;-78
2022/01/07 05:33:24;;;;;;;;;0.00;0.00;;;;;4.91;70.00;101215.97;5059801;28;45412;-80
2022/01/07 05:35:50;;;;;;;;;0.00;0.00;;;;;5.22;69.85;101275.66;5056993;28;45880;-78
2022/01/07 05:38:15;;;;;;;;;0.00;0.00;;;;;4.87;70.18;101208.94;5028610;28;45332;-78
2022/01/07 05:40:40;;;;;;;;;0.00;0.00;;;;;4.93;69.83;101212.63;5041200;28;45705;-77
2022/01/07 05:43:06;;;;;;;;;0.50;0.00;;;;;4.92;69.99;101191.91;5059801;28;45328;-78
2022/01/07 05:45:31;;;;;;;;;1.00;0.75;;;;;5.49;69.91;101268.13;5052854;28;45376;-78
2022/01/07 05:47:56;;;;;;;;;0.00;0.00;;;;;5.29;69.70;101229.50;5060089;28;45370;-79
2022/01/07 05:50:22;;;;;;;;;0.50;0.00;;;;;5.32;69.39;101234.78;5042075;28;45340;-79
2022/01/07 05:52:47;;;;;;;;;0.00;0.00;;;;;5.45;69.13;101261.03;5056338;28;45392;-79
2022/01/07 05:55:13;;;;;;;;;0.00;0.00;;;;;5.26;69.45;101237.13;5037365;28;47604;-79
2022/01/07 05:57:38;;;;;;;;;0.00;0.00;;;;;5.50;69.42;101287.06;5058237;28;45359;-79
2022/01/07 06:00:07;;;;;;;;;0.00;0.00;;;;;5.41;69.50;101262.66;5058909;28;45693;-77
2022/01/07 06:02:33;;;;;;;;;0.00;0.00;;;;;5.42;69.83;101259.22;5059650;28;45467;-77
2022/01/07 06:04:58;;;;;;;;;0.00;0.00;;;;;5.36;69.20;101240.91;5047339;28;45903;-77
2022/01/07 06:07:23;;;;;;;;;0.00;0.00;;;;;5.07;69.51;101207.13;5055340;28;45413;-77
2022/01/07 06:09:49;;;;;;;;;0.00;0.00;;;;;4.99;69.36;101190.47;5056073;28;45413;-78
2022/01/07 06:12:14;;;;;;;;;0.00;0.00;;;;;5.17;69.21;101213.50;5057439;28;45785;-77
2022/01/07 06:14:39;;;;;;;;;0.00;0.00;;;;;5.52;69.09;101262.19;5055917;28;46339;-77
2022/01/07 06:17:08;;;;;;;;;0.00;0.00;;;;;5.60;69.91;101271.09;5059184;28;45667;-78
2022/01/07 06:19:34;;;;;;;;;0.00;0.00;;;;;5.64;69.48;101272.09;5057350;28;45501;-77
2022/01/07 06:21:59;;;;;;;;;0.00;0.00;;;;;5.22;69.49;101201.69;5033407;28;47690;-77
2022/01/07 06:24:25;;;;;;;;;0.00;0.00;;;;;5.28;69.65;101227.75;5059851;28;45588;-78
2022/01/07 06:26:50;;;;;;;;;0.00;0.00;;;;;5.42;69.07;101240.31;5044472;28;45570;-76
2022/01/07 06:29:15;;;;;;;;;0.00;0.00;;;;;5.19;69.42;101207.63;5046951;28;45479;-77
2022/01/07 06:31:41;;;;;;;;;0.00;0.00;;;;;5.09;69.78;101183.97;5059574;28;45414;-79
2022/01/07 06:34:06;;;;;;;;;0.00;0.00;;;;;5.65;69.47;101272.16;5059537;28;45409;-79
2022/01/07 06:36:31;;;;;;;;;0.25;0.00;;;;;4.98;69.25;101161.19;5059111;28;45426;-79
2022/01/07 06:38:58;;;;;;;;;0.00;0.00;;;;;5.16;69.44;101180.78;5061545;28;45674;-77
2022/01/07 06:41:24;;;;;;;;;0.00;0.00;;;;;5.80;69.64;101273.53;5060888;28;45488;-77
2022/01/07 06:43:49;;;;;;;;;0.00;0.00;;;;;5.47;69.50;101215.50;5058461;28;46371;-77
2022/01/07 06:46:14;;;;;;;;;0.00;0.00;;;;;5.70;69.59;101243.91;5059767;28;45425;-77
2022/01/07 06:48:41;;;;;;;;;0.00;0.00;;;;;5.89;69.90;101279.06;5058981;28;45548;-77
2022/01/07 06:51:06;;;;;;;;;0.00;0.00;;;;;5.77;69.23;101242.41;5057253;28;45553;-77
2022/01/07 06:53:32;;;;;;;;;0.00;0.00;;;;;5.94;69.61;101268.84;5041654;28;46346;-77
2022/01/07 06:55:59;;;;;;;;;0.00;0.00;;;;;5.83;69.17;101253.00;5057603;28;45418;-79
2022/01/07 06:58:25;;;;;;;;;0.00;0.00;;;;;5.79;69.47;101235.63;5054457;28;46213;-76
2022/01/07 07:00:51;;;;;;;;;0.00;0.00;;;;;5.79;69.59;101240.78;5057866;28;45419;-77
2022/01/07 07:03:16;;;;;;;;;0.00;0.00;;;;;5.86;69.96;101263.44;5056176;28;45493;-77
2022/01/07 07:05:42;;;;;;;;;0.00;0.00;;;;;5.58;69.65;101213.34;5061044;28;45464;-78
2022/01/07 07:08:07;;;;;;;;;0.00;0.00;;;;;5.70;69.66;101226.69;5041203;28;45407;-77
2022/01/07 07:10:33;;;;;;;;;0.00;0.00;;;;;5.77;69.31;101250.16;5040581;28;44953;-78
2022/01/07 07:12:58;;;;;;;;;0.00;0.00;;;;;5.15;69.81;101160.97;5060075;28;46176;-77
2022/01/07 07:15:23;;;;;;;;;0.50;0.00;;;;;5.79;70.14;101258.88;5041959;28;45443;-77
2022/01/07 07:17:49;;;;;;;;;0.00;0.00;;;;;5.82;70.12;101275.34;5060311;28;45541;-78
2022/01/07 07:20:14;;;;;;;;;0.50;0.50;;;;;5.74;70.14;101278.47;5042179;28;45457;-80
2022/01/07 07:22:39;;;;;;;;;0.00;0.00;;;;;5.34;70.61;101224.50;5060420;28;45925;-78
2022/01/07 07:25:05;;;;;;;;;0.00;0.00;;;;;5.69;70.86;101281.78;5039476;28;47216;-77
2022/01/07 07:27:31;;;;;;;;;0.00;0.00;;;;;5.25;70.86;101200.91;5039729;28;45361;-79
2022/01/07 07:29:56;;;;;;;;;0.00;0.00;;;;;5.27;70.95;101222.50;5033208;28;45414;-77
2022/01/07 07:32:26;;;;;;;;;0.00;0.00;;;;;5.36;70.96;101221.97;5040409;28;46208;-78
2022/01/07 07:35:04;;;;;;;;;0.00;0.00;;;;;5.73;71.21;101284.47;5045828;28;45474;-79
2022/01/07 07:37:30;;;;;;;;;0.00;0.00;;;;;5.63;70.66;101265.19;5038289;28;45585;-79
2022/01/07 07:39:55;;;;;;;;;0.00;0.00;;;;;5.49;71.49;101247.44;5029193;28;45452;-78
2022/01/07 07:42:21;;;;;;;;;0.00;0.00;;;;;5.64;70.80;101267.78;5027875;28;47187;-80
2022/01/07 07:44:47;;;;;;;;;0.25;0.00;;;;;5.37;71.35;101239.22;5042182;28;45316;-79
2022/01/07 07:47:13;;;;;;;;;0.00;0.00;;;;;5.73;71.88;101285.38;5025365;28;45437;-78
2022/01/07 07:49:38;;;;;;;;;0.00;0.00;;;;;5.85;71.82;101304.72;5021495;28;45683;-77
2022/01/07 07:52:04;;;;;;;;;0.00;0.00;;;;;5.79;71.96;101301.06;5038232;28;46033;-78
2022/01/07 07:54:30;;;;;;;;;0.00;0.00;;;;;5.56;72.47;101258.88;5038557;28;45518;-78
2022/01/07 07:56:57;;;;;;;;;0.00;0.00;;;;;5.47;72.31;101249.09;5031116;28;45495;-80
2022/01/07 07:59:23;;;;;;;;;1.00;1.00;;;;;5.80;72.56;101294.22;5039397;28;46931;-78
2022/01/07 08:01:49;;;;;;;;;0.00;0.00;;;;;5.52;72.79;101249.25;5034661;28;45702;-77
2022/01/07 08:04:18;;;;;;;;;1.00;0.00;;;;;5.76;72.92;101288.03;5038430;28;45403;-78
2022/01/07 08:06:43;;;;;;;;;0.00;0.00;;;;;5.42;72.83;101236.00;5039039;28;45387;-77
2022/01/07 08:09:09;;;;;;;;;0.00;0.00;;;;;5.74;73.43;101299.16;5036047;28;45684;-76
2022/01/07 08:11:48;;;;;;;;;0.00;0.00;;;;;5.64;73.95;101293.63;5034199;28;46121;-77
2022/01/07 08:16:58;;;;;;;;;0.00;0.00;;;;;5.59;73.62;101300.31;5035596;28;45440;-76
2022/01/07 08:19:23;;;;;;;;;0.00;0.00;;;;;5.66;73.77;101307.47;5019370;28;45461;-76
2022/01/07 08:21:49;;;;;;;;;0.00;0.00;;;;;5.58;74.09;101316.66;5037228;28;46397;-76
2022/01/07 08:24:14;;;;;;;;;0.00;0.00;;;;;5.53;74.19;101307.84;5046538;28;45394;-77
2022/01/07 08:26:39;;;;;;;;;0.00;0.00;;;;;5.61;74.45;101302.97;5041437;28;45513;-77
2022/01/07 08:29:08;;;;;;;;;0.00;0.00;;;;;5.61;74.10;101319.38;5060500;28;45460;-77
2022/01/07 08:36:45;;;;;;;;;2.00;0.00;;;;;5.34;73.97;101240.00;5066372;28;45366;-76
2022/01/07 08:39:10;;;;;;;;;1.00;0.00;;;;;5.70;73.66;101303.34;5056871;28;46070;-76
2022/01/07 08:41:37;;;;;;;;;0.00;0.00;;;;;5.41;73.84;101260.06;5043024;28;45777;-76
2022/01/07 08:44:04;;;;;;;;;0.00;0.00;;;;;5.74;74.07;101300.03;5045594;28;45549;-76
2022/01/07 08:46:30;;;;;;;;;0.00;0.00;;;;;5.75;73.94;101295.72;5069432;28;45853;-76
2022/01/07 08:48:57;;;;;;;;;0.00;0.00;;;;;4.87;73.85;101141.84;5065107;28;45573;-76
2022/01/07 08:51:22;;;;;;;;;0.00;0.00;;;;;5.74;73.76;101275.88;5030096;28;46389;-76
2022/01/07 08:53:48;;;;;;;;;0.00;0.00;;;;;5.66;74.03;101253.25;5059007;28;45398;-76
2022/01/07 08:56:16;;;;;;;;;0.25;0.25;;;;;5.76;73.92;101257.03;5053768;28;45256;-76
2022/01/07 08:58:42;;;;;;;;;0.00;0.00;;;;;5.71;74.00;101230.16;5059415;28;45414;-76
2022/01/07 09:01:07;;;;;;;;;0.00;0.00;;;;;5.63;74.19;101210.94;5053505;28;45608;-76
2022/01/07 09:03:32;;;;;;;;;0.00;0.00;;;;;5.39;74.19;101160.13;5056800;28;45381;-76
2022/01/07 09:05:58;;;;;;;;;0.00;0.00;;;;;5.96;73.50;101255.19;5064837;28;45511;-81
2022/01/07 09:08:23;;;;;;;;;0.00;0.00;;;;;5.65;73.61;101217.91;5066002;28;45639;-76
2022/01/07 09:10:49;;;;;;;;;0.00;0.00;;;;;5.83;73.74;101263.31;5055592;28;46060;-77
2022/01/07 09:13:14;;;;;;;;;0.00;0.00;;;;;5.72;72.99;101250.00;5064315;28;45474;-78
2022/01/07 09:15:40;;;;;;;;;0.00;0.00;;;;;5.89;73.81;101283.34;5067968;28;45405;-78
2022/01/07 09:18:15;;;;;;;;;0.00;0.00;;;;;5.95;73.75;101293.91;5061952;28;45430;-78
2022/01/07 09:20:42;;;;;;;;;0.00;0.00;;;;;5.85;73.30;101284.06;5044913;28;47545;-77
2022/01/07 09:23:10;;;;;;;;;0.00;0.00;;;;;5.57;73.33;101243.44;5059369;28;45355;-76
2022/01/07 09:25:35;;;;;;;;;0.00;0.00;;;;;5.83;73.62;101297.78;5056064;28;45459;-77
2022/01/07 09:28:01;;;;;;;;;0.00;0.00;;;;;5.81;73.54;101288.22;5059050;28;45838;-77
2022/01/07 09:30:27;;;;;;;;;0.00;0.00;;;;;5.43;73.60;101235.16;5056498;28;46092;-77
2022/01/07 09:32:53;;;;;;;;;3.00;0.00;;;;;5.79;73.65;101282.97;5056908;28;45470;-76
2022/01/07 09:35:19;;;;;;;;;1.00;0.00;;;;;5.50;73.00;101241.47;5056847;28;45512;-75
2022/01/07 09:37:44;;;;;;;;;0.00;0.00;;;;;5.80;73.62;101276.13;5059305;28;45869;-79
2022/01/07 09:40:11;;;;;;;;;0.00;0.00;;;;;5.93;73.60;101295.53;5058309;28;46646;-78
2022/01/07 09:42:37;;;;;;;;;0.00;0.00;;;;;5.98;73.22;101283.69;5041085;28;45428;-78
2022/01/07 09:45:03;;;;;;;;;0.00;0.00;;;;;6.08;73.24;101292.66;5053614;28;45363;-78
2022/01/07 09:47:29;;;;;;;;;0.00;0.00;;;;;5.38;73.20;101186.75;5058563;28;45561;-78
2022/01/07 09:49:55;;;;;;;;;0.00;0.00;;;;;5.60;73.06;101223.72;5019170;28;47298;-78
2022/01/07 09:52:20;;;;;;;;;0.00;0.00;;;;;5.76;72.84;101235.50;5044293;28;45528;-78
2022/01/07 09:54:47;;;;;;;;;0.00;0.00;;;;;5.86;72.67;101249.63;5029333;28;45660;-77
2022/01/07 09:57:13;;;;;;;;;0.00;0.00;;;;;6.07;72.72;101285.75;5058406;28;45541;-76
2022/01/07 09:59:58;;;;;;;;;0.00;0.00;;;;;6.11;72.78;101286.72;5053067;28;46421;-75
2022/01/07 10:02:23;;;;;;;;;0.00;0.00;;;;;5.67;72.64;101182.66;5031579;28;46105;-76
2022/01/07 10:04:49;;;;;;;;;0.00;0.00;;;;;6.53;72.50;101277.84;5054925;28;45654;-78
2022/01/07 10:07:25;;;;;;;;;0.00;0.00;;;;;6.76;72.21;101290.66;5057026;28;45714;-78
2022/01/07 10:09:57;;;;;;;;;0.00;0.00;;;;;6.92;71.52;101269.63;5053647;28;45580;-78
2022/01/07 10:12:23;;;;;;;;;0.00;0.00;;;;;6.55;70.88;101177.88;5036352;28;45547;-78
2022/01/07 10:15:13;;;;;;;;;0.00;0.00;;;;;7.33;70.15;101271.78;5056065;28;45477;-78
2022/01/07 10:17:40;;;;;;;;;0.00;0.00;;;;;7.07;69.99;101230.41;5026165;28;45294;-78
2022/01/07 10:20:06;;;;;;;;;0.00;0.00;;;;;7.19;69.28;101289.47;5054827;28;46176;-78
2022/01/07 10:22:56;;;;;;;;;0.00;0.00;;;;;7.03;69.79;101277.75;5038021;28;46949;-78
2022/01/07 10:25:36;;;;;;;;;1.50;0.75;;;;;6.80;69.90;101264.94;5039462;28;45406;-78
2022/01/07 10:28:09;;;;;;;;;0.00;0.00;;;;;6.84;70.15;101278.88;5053754;28;45557;-78
2022/01/07 10:30:37;;;;;;;;;0.00;0.00;;;;;6.85;70.35;101278.03;5040696;28;47274;-79
2022/01/07 10:33:18;;;;;;;;;0.00;0.00;;;;;7.00;70.11;101262.13;5059223;28;45765;-76
2022/01/07 10:35:44;;;;;;;;;0.00;0.00;;;;;6.93;70.35;101229.09;5040357;28;45567;-78
2022/01/07 10:38:19;;;;;;;;;0.00;0.00;;;;;7.06;69.72;101231.25;5059437;28;45708;-76
2022/01/07 10:40:45;;;;;;;;;0.00;0.00;;;;;6.98;69.82;101193.88;5057249;28;45460;-77
2022/01/07 10:43:12;;;;;;;;;0.00;0.00;;;;;7.32;69.53;101244.09;5057823;28;45450;-78
2022/01/07 10:45:41;;;;;;;;;0.00;0.00;;;;;6.97;69.30;101192.13;5058213;28;45458;-77
2022/01/07 10:48:07;;;;;;;;;0.00;0.00;;;;;7.29;69.26;101254.38;5058745;28;45683;-77
2022/01/07 10:50:36;;;;;;;;;0.00;0.00;;;;;7.25;68.96;101251.63;5058003;28;46326;-77
2022/01/07 10:53:20;;;;;;;;;0.00;0.00;;;;;7.30;69.47;101247.50;5058686;28;45406;-77
2022/01/07 10:55:59;;;;;;;;;0.00;0.00;;;;;7.34;68.58;101254.50;5055004;28;45747;-78
2022/01/07 10:58:26;;;;;;;;;0.00;0.00;;;;;7.20;68.33;101230.81;5054195;28;45923;-79
2022/01/07 11:00:51;;;;;;;;;0.00;0.00;;;;;7.21;68.48;101228.25;5034061;28;48785;-78
2022/01/07 11:03:16;;;;;;;;;0.25;0.00;;;;;7.22;68.15;101217.06;5036748;28;45866;-78
2022/01/07 11:05:42;;;;;;;;;0.00;0.00;;;;;7.51;68.37;101269.69;5056420;28;45408;-78
2022/01/07 11:08:08;;;;;;;;;0.00;0.00;;;;;7.35;67.56;101231.25;5058206;28;45509;-76
2022/01/07 11:10:36;;;;;;;;;0.00;0.00;;;;;7.31;67.87;101224.22;5057614;28;46170;-78
2022/01/07 11:13:03;;;;;;;;;0.00;0.00;;;;;7.31;67.37;101213.88;5058227;28;45448;-77
2022/01/07 11:15:29;;;;;;;;;0.00;0.00;;;;;7.26;67.42;101215.41;5050584;28;45474;-77
2022/01/07 11:17:54;;;;;;;;;0.00;0.00;;;;;7.37;67.83;101218.34;5042158;28;45793;-77
2022/01/07 11:20:24;;;;;;;;;0.00;0.00;;;;;7.53;67.89;101242.13;5055862;28;45810;-77
2022/01/07 11:22:50;;;;;;;;;0.00;0.00;;;;;7.47;68.11;101225.56;5054523;28;45335;-77
2022/01/07 11:25:17;;;;;;;;;1.00;0.00;;;;;7.32;67.37;101201.81;5044083;28;45582;-77
2022/01/07 11:27:46;;;;;;;;;0.00;0.00;;;;;7.02;67.97;101164.69;5038861;28;45432;-77
2022/01/07 11:30:18;;;;;;;;;0.00;0.00;;;;;7.48;67.47;101236.81;5040037;28;45407;-77
2022/01/07 11:32:50;;;;;;;;;1.00;0.00;;;;;7.52;67.95;101248.13;5039526;28;45434;-79
2022/01/07 11:35:21;;;;;;;;;0.00;0.00;;;;;7.63;67.41;101251.94;5033745;28;45341;-77
2022/01/07 11:37:58;;;;;;;;;0.00;0.00;;;;;7.76;67.66;101250.56;5037705;28;45545;-79
2022/01/07 11:40:32;;;;;;;;;0.00;0.00;;;;;7.78;67.52;101241.09;5035110;28;46874;-80
2022/01/07 11:43:17;;;;;;;;;0.50;0.00;;;;;7.81;67.20;101248.97;5029636;28;45500;-79